Time;durP1;ratioP1;P1;durP2;ratioP2;P2;SDS_P1;SDS_P2;PMS_P1;PMS_P2;Temp;Humidity;BMP_temperature;BMP_pressure;BME280_temperature;BME280_humidity;BME280_pressure;Samples;Min_cycle;Max_cycle;Signal;HPM_P1;HPM_P2
2021/01/28 00:01:56;;;;;;;2.10;1.10;;;;;;;0.07;89.75;95233.91;4961174;28;20209;-73
2021/01/28 00:04:21;;;;;;;1.30;0.83;;;;;;;0.04;89.58;95233.28;4960839;28;20188;-73
2021/01/28 00:06:47;;;;;;;0.80;0.80;;;;;;;0.01;90.04;95229.19;4977470;28;20220;-73
2021/01/28 00:09:12;;;;;;;2.70;1.17;;;;;;;0.05;89.83;95227.25;4961144;28;20547;-73
2021/01/28 00:11:37;;;;;;;3.20;1.40;;;;;;;0.12;89.96;95220.88;4977209;28;20187;-73
2021/01/28 00:14:03;;;;;;;1.73;1.13;;;;;;;0.12;89.69;95228.53;4994561;28;20187;-73
2021/01/28 00:16:28;;;;;;;1.53;1.10;;;;;;;0.19;89.52;95229.81;4994076;28;20196;-73
2021/01/28 00:18:53;;;;;;;1.30;1.20;;;;;;;0.18;89.44;95221.31;4977011;28;20210;-73
2021/01/28 00:21:19;;;;;;;1.83;1.33;;;;;;;0.19;89.40;95217.84;4977087;28;20218;-73
2021/01/28 00:23:44;;;;;;;1.33;0.80;;;;;;;0.26;89.65;95216.53;4976952;28;20217;-73
2021/01/28 00:26:10;;;;;;;1.37;1.20;;;;;;;0.26;89.26;95225.94;4976525;28;20200;-73
2021/01/28 00:28:35;;;;;;;2.03;1.00;;;;;;;0.26;89.37;95211.44;4976821;28;20195;-73
2021/01/28 00:31:01;;;;;;;3.27;1.20;;;;;;;0.29;89.64;95213.00;4976915;28;20210;-73
2021/01/28 00:33:26;;;;;;;1.57;1.10;;;;;;;0.30;89.50;95213.81;4976872;28;20179;-73
2021/01/28 00:35:53;;;;;;;1.17;0.90;;;;;;;0.31;89.54;95211.16;4976502;28;20258;-73
2021/01/28 00:38:26;;;;;;;1.27;0.77;;;;;;;0.32;89.44;95209.44;4976810;28;20179;-73
2021/01/28 00:40:52;;;;;;;2.93;0.93;;;;;;;0.26;89.44;95202.97;4976676;28;20176;-73
2021/01/28 00:43:18;;;;;;;1.43;0.87;;;;;;;0.27;89.38;95200.34;4976483;28;20232;-73
2021/01/28 00:45:43;;;;;;;2.07;0.90;;;;;;;0.27;89.49;95200.34;4976324;28;20287;-73
2021/01/28 00:48:09;;;;;;;2.47;1.00;;;;;;;0.30;89.30;95183.19;4976562;28;20211;-73
2021/01/28 00:50:36;;;;;;;1.60;1.00;;;;;;;0.25;89.59;95186.81;4976561;28;20213;-73
2021/01/28 00:53:01;;;;;;;1.60;0.90;;;;;;;0.23;89.41;95175.88;4976496;28;20214;-73
2021/01/28 00:55:27;;;;;;;1.10;1.00;;;;;;;0.19;89.34;95171.91;4993568;28;20679;-73
2021/01/28 00:57:52;;;;;;;1.40;1.00;;;;;;;0.16;89.54;95176.34;4993656;28;20192;-73
2021/01/28 01:00:23;;;;;;;1.20;0.90;;;;;;;0.16;89.25;95166.94;4976363;28;20527;-73
2021/01/28 01:02:48;;;;;;;1.60;0.93;;;;;;;0.15;89.31;95167.88;4959911;28;20211;-73
2021/01/28 01:05:18;;;;;;;2.97;1.60;;;;;;;0.09;89.17;95159.75;4975765;28;20613;-72
2021/01/28 01:07:45;;;;;;;2.33;1.10;;;;;;;0.13;89.55;95168.88;4959837;28;20188;-73
2021/01/28 01:10:20;;;;;;;2.27;1.20;;;;;;;0.12;89.37;95169.81;4976081;28;20246;-73
2021/01/28 01:12:45;;;;;;;2.10;0.80;;;;;;;0.18;89.09;95166.88;4976115;28;20210;-73
2021/01/28 01:15:11;;;;;;;1.50;0.90;;;;;;;0.19;89.27;95171.06;4975745;28;20222;-73
2021/01/28 01:17:36;;;;;;;2.27;1.00;;;;;;;0.14;89.05;95170.53;4976023;28;20639;-72
2021/01/28 01:20:03;;;;;;;1.37;1.27;;;;;;;0.18;89.08;95177.91;4976004;28;20199;-72
2021/01/28 01:22:28;;;;;;;1.77;1.17;;;;;;;0.14;89.17;95168.78;4975629;28;20203;-73
2021/01/28 01:24:53;;;;;;;4.43;2.80;;;;;;;0.11;89.09;95157.94;4992701;28;20528;-72
2021/01/28 01:27:19;;;;;;;1.60;1.10;;;;;;;0.06;89.10;95162.50;4993333;28;20200;-73
2021/01/28 01:29:44;;;;;;;1.87;1.27;;;;;;;0.08;89.40;95173.44;4975801;28;20194;-73
2021/01/28 01:32:09;;;;;;;1.40;1.30;;;;;;;0.03;88.93;95167.81;4959386;28;20216;-73
2021/01/28 01:34:35;;;;;;;1.53;1.37;;;;;;;0.08;89.31;95168.34;4992898;28;20636;-73
2021/01/28 01:37:00;;;;;;;2.03;1.17;;;;;;;0.06;89.23;95168.44;4975463;28;20203;-73
2021/01/28 01:39:25;;;;;;;1.27;1.10;;;;;;;0.05;88.98;95163.44;4975614;28;20211;-73
2021/01/28 01:41:51;;;;;;;2.57;1.30;;;;;;;-0.03;89.14;95156.22;4975429;28;20237;-73
2021/01/28 01:44:16;;;;;;;2.70;1.63;;;;;;;0.00;89.30;95156.06;4975276;28;20180;-73
2021/01/28 01:46:41;;;;;;;1.37;1.10;;;;;;;0.04;89.16;95152.41;4975263;28;20198;-73
2021/01/28 01:49:10;;;;;;;2.50;1.13;;;;;;;0.01;89.28;95147.50;4959252;28;20240;-73
2021/01/28 01:51:37;;;;;;;3.17;1.53;;;;;;;-0.02;89.16;95140.81;4975187;28;20204;-73
2021/01/28 01:54:11;;;;;;;2.43;1.43;;;;;;;-0.03;89.20;95143.47;4975531;28;20206;-73
2021/01/28 01:56:40;;;;;;;1.77;1.30;;;;;;;0.02;89.29;95131.25;4975062;28;20286;-73
2021/01/28 01:59:08;;;;;;;2.70;1.10;;;;;;;-0.04;89.20;95124.78;4958109;28;20187;-73
2021/01/28 02:01:40;;;;;;;2.20;1.17;;;;;;;0.01;89.06;95127.06;4974989;28;20670;-73
2021/01/28 02:04:07;;;;;;;2.23;1.20;;;;;;;0.01;89.48;95116.03;4974946;28;20718;-73
2021/01/28 02:06:45;;;;;;;4.17;1.20;;;;;;;0.17;89.49;95120.06;4992069;28;20285;-72
2021/01/28 02:09:11;;;;;;;2.93;0.93;;;;;;;0.18;89.13;95120.91;4992445;28;20657;-73
2021/01/28 02:11:38;;;;;;;3.03;0.80;;;;;;;0.23;89.09;95111.22;4975021;28;20214;-73
2021/01/28 02:14:04;;;;;;;2.80;0.87;;;;;;;0.25;88.68;95105.09;4974793;28;20199;-73
2021/01/28 02:16:33;;;;;;;2.10;0.80;;;;;;;0.27;88.51;95113.50;4992025;28;20277;-73
2021/01/28 02:19:00;;;;;;;3.27;0.80;;;;;;;0.32;88.75;95110.66;4974431;28;20553;-73
2021/01/28 02:21:33;;;;;;;2.80;0.80;;;;;;;0.40;88.50;95102.50;4992315;28;20179;-73
2021/01/28 02:24:26;;;;;;;0.50;0.47;;;;;;;0.46;88.28;95097.00;4958666;28;20748;-73
2021/01/28 02:26:52;;;;;;;0.60;0.60;;;;;;;0.40;88.14;95094.84;4974940;28;20247;-73
2021/01/28 02:29:20;;;;;;;0.90;0.60;;;;;;;0.46;88.13;95087.63;4974946;28;20555;-73
2021/01/28 02:31:48;;;;;;;0.90;0.70;;;;;;;0.52;88.11;95081.28;4974699;28;20682;-73
2021/01/28 02:34:14;;;;;;;1.40;0.40;;;;;;;0.61;87.41;95080.69;4974687;28;20266;-73
2021/01/28 02:36:45;;;;;;;2.73;0.80;;;;;;;0.56;87.52;95077.63;4958560;28;20286;-73
2021/01/28 02:39:12;;;;;;;0.63;0.50;;;;;;;0.58;87.54;95080.88;4958603;28;20211;-73
2021/01/28 02:41:38;;;;;;;1.37;0.60;;;;;;;0.60;87.03;95068.81;4974769;28;20215;-73
2021/01/28 02:44:03;;;;;;;2.33;0.60;;;;;;;0.70;86.72;95064.75;4958624;28;20208;-73
2021/01/28 02:46:29;;;;;;;2.00;0.50;;;;;;;0.71;86.78;95061.31;4974480;28;20284;-73
2021/01/28 02:48:54;;;;;;;2.37;0.53;;;;;;;0.69;86.61;95059.75;4974811;28;20579;-73
2021/01/28 02:51:20;;;;;;;0.40;0.40;;;;;;;0.62;86.84;95061.91;4974718;28;20176;-72
2021/01/28 02:53:49;;;;;;;0.40;0.40;;;;;;;0.55;87.30;95060.66;4974523;28;20178;-72
2021/01/28 02:56:14;;;;;;;1.23;0.50;;;;;;;0.54;87.29;95056.47;4958003;28;20204;-73
2021/01/28 02:58:39;;;;;;;0.47;0.40;;;;;;;0.43;87.34;95058.88;4974733;28;20176;-73
2021/01/28 03:01:06;;;;;;;0.63;0.50;;;;;;;0.36;87.82;95050.00;4974677;28;20199;-73
2021/01/28 03:03:31;;;;;;;2.13;0.63;;;;;;;0.32;87.52;95045.97;4958446;28;20208;-73
2021/01/28 03:05:57;;;;;;;1.03;0.60;;;;;;;0.32;87.48;95043.41;4991610;28;20215;-73
2021/01/28 03:08:24;;;;;;;0.70;0.60;;;;;;;0.29;88.07;95047.00;4974553;28;20504;-73
2021/01/28 03:10:49;;;;;;;1.13;0.70;;;;;;;0.28;88.10;95038.53;4991756;28;20180;-73
2021/01/28 03:13:15;;;;;;;0.50;0.50;;;;;;;0.28;88.19;95030.84;4974600;28;20698;-73
2021/01/28 03:15:40;;;;;;;0.50;0.50;;;;;;;0.30;88.29;95032.50;4974065;28;20204;-73
2021/01/28 03:18:06;;;;;;;0.63;0.60;;;;;;;0.24;88.33;95029.41;4974568;28;20190;-73
2021/01/28 03:20:31;;;;;;;0.60;0.60;;;;;;;0.25;88.42;95028.47;4974340;28;20176;-73
2021/01/28 03:22:57;;;;;;;0.50;0.50;;;;;;;0.24;88.13;95016.63;4958141;28;20235;-73
2021/01/28 03:25:23;;;;;;;0.87;0.57;;;;;;;0.24;88.57;95018.38;4957756;28;20606;-73
2021/01/28 03:27:49;;;;;;;0.60;0.60;;;;;;;0.21;88.58;95019.41;4974420;28;20168;-73
2021/01/28 03:30:19;;;;;;;0.40;0.40;;;;;;;0.23;88.51;95014.19;4974760;28;20776;-73
2021/01/28 03:32:44;;;;;;;0.63;0.60;;;;;;;0.30;88.37;95004.41;4977755;28;20557;-73
2021/01/28 03:35:10;;;;;;;0.50;0.50;;;;;;;0.33;88.20;94999.09;4995014;28;20180;-73
2021/01/28 03:37:35;;;;;;;0.60;0.60;;;;;;;0.26;88.16;94994.34;4977752;28;20611;-73
2021/01/28 03:40:00;;;;;;;0.60;0.60;;;;;;;0.20;88.25;94984.56;4995222;28;20226;-73
2021/01/28 03:42:26;;;;;;;1.10;0.80;;;;;;;0.19;88.51;94965.06;4995124;28;20726;-73
2021/01/28 03:44:51;;;;;;;0.63;0.63;;;;;;;0.22;88.20;94956.38;4994697;28;20184;-73
2021/01/28 03:47:16;;;;;;;0.70;0.70;;;;;;;0.16;88.42;94955.03;4961480;28;20203;-73
2021/01/28 03:49:42;;;;;;;1.50;0.87;;;;;;;0.17;87.77;94943.06;4994977;28;20226;-73
2021/01/28 03:52:07;;;;;;;1.43;0.97;;;;;;;0.16;88.64;94941.44;4995012;28;20665;-73
2021/01/28 03:54:32;;;;;;;1.40;0.73;;;;;;;0.11;88.31;94940.94;4977255;28;20184;-73
2021/01/28 03:56:58;;;;;;;1.30;1.03;;;;;;;0.13;88.33;94947.56;4977469;28;20203;-73
2021/01/28 03:59:23;;;;;;;0.90;0.90;;;;;;;0.17;88.52;94938.78;4977518;28;20180;-73
2021/01/28 04:01:48;;;;;;;1.00;0.80;;;;;;;0.19;88.60;94924.19;4994882;28;20195;-73
2021/01/28 04:04:13;;;;;;;0.80;0.80;;;;;;;0.14;88.29;94913.47;4977026;28;20698;-73
2021/01/28 04:06:39;;;;;;;0.80;0.80;;;;;;;0.10;88.61;94906.94;4994534;28;20219;-73
2021/01/28 04:09:04;;;;;;;0.80;0.80;;;;;;;0.10;88.70;94891.59;4977410;28;20247;-73
2021/01/28 04:11:29;;;;;;;3.13;0.93;;;;;;;0.11;88.69;94894.97;4994649;28;20184;-73
2021/01/28 04:13:55;;;;;;;1.00;0.87;;;;;;;0.12;88.56;94891.50;4977226;28;20176;-73
2021/01/28 04:16:20;;;;;;;0.87;0.87;;;;;;;0.09;88.56;94889.97;4994268;28;20693;-73
2021/01/28 04:18:45;;;;;;;0.80;0.80;;;;;;;0.07;88.73;94884.13;4977068;28;20191;-73
2021/01/28 04:21:11;;;;;;;1.10;1.00;;;;;;;0.12;89.04;94892.31;4977153;28;20270;-73
2021/01/28 04:23:36;;;;;;;1.30;1.20;;;;;;;0.08;88.69;94888.31;4977016;28;20208;-73
2021/01/28 04:26:01;;;;;;;1.57;1.00;;;;;;;0.09;88.72;94882.31;4993865;28;20610;-73
2021/01/28 04:28:27;;;;;;;1.47;1.20;;;;;;;0.09;88.83;94879.75;4976789;28;20180;-73
2021/01/28 04:30:52;;;;;;;1.20;1.10;;;;;;;0.11;88.53;94867.72;4976806;28;20578;-73
2021/01/28 04:33:18;;;;;;;1.23;1.13;;;;;;;0.06;88.71;94867.19;4994321;28;20655;-73
2021/01/28 04:35:43;;;;;;;1.67;1.30;;;;;;;0.11;89.00;94860.06;4976500;28;20204;-73
2021/01/28 04:38:08;;;;;;;1.17;1.07;;;;;;;0.05;88.64;94847.69;4976814;28;20624;-73
2021/01/28 04:40:42;;;;;;;1.40;1.30;;;;;;;0.08;89.11;94852.56;4994166;28;20183;-73
2021/01/28 04:43:28;;;;;;;1.20;1.10;;;;;;;0.03;88.84;94841.88;4975890;28;20223;-73
2021/01/28 04:45:57;;;;;;;1.33;1.20;;;;;;;0.05;88.43;94836.66;4976283;28;20690;-73
2021/01/28 04:48:22;;;;;;;2.03;1.40;;;;;;;0.04;89.01;94835.03;4976507;28;20194;-73
2021/01/28 04:50:48;;;;;;;1.67;1.57;;;;;;;-0.01;89.13;94833.56;4976701;28;20258;-73
2021/01/28 04:53:23;;;;;;;2.43;1.80;;;;;;;0.03;88.72;94831.66;4976359;28;20178;-73
2021/01/28 04:55:52;;;;;;;1.93;1.83;;;;;;;0.09;88.80;94828.72;4993490;28;20577;-73
2021/01/28 04:58:18;;;;;;;1.50;1.40;;;;;;;0.05;88.50;94811.94;4976261;28;20184;-73
2021/01/28 05:00:43;;;;;;;2.07;1.83;;;;;;;0.05;88.96;94801.72;4960209;28;20718;-73
2021/01/28 05:03:19;;;;;;;1.90;1.80;;;;;;;-0.03;88.97;94793.75;4993731;28;20298;-73
2021/01/28 05:05:46;;;;;;;1.97;1.70;;;;;;;-0.02;89.03;94791.09;4975884;28;20215;-73
2021/01/28 05:08:11;;;;;;;2.40;1.87;;;;;;;-0.02;89.11;94785.19;4976040;28;20179;-73
2021/01/28 05:10:41;;;;;;;2.20;2.00;;;;;;;-0.04;89.11;94776.81;4993436;28;20534;-73
2021/01/28 05:13:07;;;;;;;2.70;2.40;;;;;;;-0.03;89.31;94783.56;4960156;28;20644;-73
2021/01/28 05:15:41;;;;;;;2.23;2.03;;;;;;;-0.06;89.22;94773.56;4975832;28;20250;-73
2021/01/28 05:18:09;;;;;;;2.47;2.20;;;;;;;-0.02;89.15;94767.31;4959740;28;20182;-73
2021/01/28 05:20:35;;;;;;;2.30;1.90;;;;;;;0.01;89.12;94762.03;4993357;28;20632;-73
2021/01/28 05:23:04;;;;;;;2.20;2.00;;;;;;;-0.05;89.54;94760.69;4975894;28;20196;-73
2021/01/28 05:25:34;;;;;;;2.20;2.00;;;;;;;-0.04;89.21;94764.06;4992818;28;20390;-73
2021/01/28 05:28:00;;;;;;;2.20;2.00;;;;;;;-0.02;89.50;94752.81;4975830;28;20178;-73
2021/01/28 05:30:41;;;;;;;3.63;2.27;;;;;;;0.02;89.30;94753.44;4975647;28;20283;-72
2021/01/28 05:33:35;;;;;;;2.20;2.00;;;;;;;-0.01;89.32;94748.53;4959859;28;20733;-71
2021/01/28 05:36:07;;;;;;;3.37;2.60;;;;;;;-0.03;89.25;94737.63;4969598;28;20624;-72
2021/01/28 05:38:43;;;;;;;2.53;2.33;;;;;;;0.01;89.41;94739.06;4992958;28;20702;-71
2021/01/28 05:41:32;;;;;;;2.90;2.37;;;;;;;0.02;89.58;94735.56;4992842;28;20207;-71
2021/01/28 05:44:27;;;;;;;2.47;2.03;;;;;;;0.11;89.06;94729.03;4985164;28;20227;-73
2021/01/28 05:47:07;;;;;;;2.40;2.10;;;;;;;0.12;89.48;94723.00;4975395;28;20206;-71
2021/01/28 05:49:35;;;;;;;2.77;2.53;;;;;;;0.18;89.31;94718.31;4975343;28;20286;-72
2021/01/28 05:52:15;;;;;;;2.63;2.40;;;;;;;0.14;89.21;94709.19;4975353;28;20244;-74
2021/01/28 05:54:41;;;;;;;2.93;2.30;;;;;;;0.20;89.33;94703.69;4974166;28;20183;-73
2021/01/28 05:57:24;;;;;;;2.90;2.60;;;;;;;0.22;89.33;94694.19;4958968;28;20218;-73
2021/01/28 06:00:07;;;;;;;3.27;2.60;;;;;;;0.22;89.22;94696.72;4975296;28;20203;-73
2021/01/28 06:02:53;;;;;;;3.90;2.90;;;;;;;0.13;89.26;94689.69;4972992;28;20271;-73
2021/01/28 06:05:42;;;;;;;3.60;2.87;;;;;;;0.09;89.29;94679.78;4988045;28;20288;-73
2021/01/28 06:08:13;;;;;;;3.37;2.93;;;;;;;0.09;89.45;94680.63;4972321;28;20271;-74
2021/01/28 06:11:09;;;;;;;5.13;3.10;;;;;;;0.03;89.35;94675.13;4973998;28;20533;-72
2021/01/28 06:13:39;;;;;;;3.90;3.20;;;;;;;0.06;89.37;94662.97;4972789;28;20184;-74
2021/01/28 06:16:22;;;;;;;5.23;3.73;;;;;;;0.11;89.40;94662.66;4967390;28;20218;-74
2021/01/28 06:19:25;;;;;;;4.97;3.60;;;;;;;0.09;89.58;94646.59;4974122;28;20190;-74
2021/01/28 06:21:56;;;;;;;4.57;3.60;;;;;;;0.08;89.43;94633.03;4988310;28;20592;-73
2021/01/28 06:24:50;;;;;;;4.60;3.67;;;;;;;0.07;89.82;94635.69;4971175;28;20216;-73
2021/01/28 06:27:34;;;;;;;4.77;3.50;;;;;;;0.09;89.53;94629.56;4954367;28;20623;-73
2021/01/28 06:30:11;;;;;;;4.60;3.70;;;;;;;0.06;89.52;94619.56;4977212;28;20236;-74
2021/01/28 06:32:54;;;;;;;4.77;3.63;;;;;;;0.15;89.52;94608.72;4986586;28;20183;-73
2021/01/28 06:35:47;;;;;;;4.50;3.30;;;;;;;0.19;89.40;94605.03;4990850;28;20689;-72
2021/01/28 06:38:40;;;;;;;5.73;3.97;;;;;;;0.15;89.50;94607.88;4980755;28;20198;-73
2021/01/28 06:41:13;;;;;;;4.67;4.07;;;;;;;0.21;89.45;94602.38;4956832;28;20807;-74
2021/01/28 06:43:46;;;;;;;5.20;3.77;;;;;;;0.13;89.67;94604.63;4973856;28;20552;-74
2021/01/28 06:46:24;;;;;;;4.83;3.97;;;;;;;0.17;89.52;94601.75;4955180;28;20210;-73
2021/01/28 06:48:51;;;;;;;5.00;3.50;;;;;;;0.15;89.84;94597.69;4986170;28;20263;-73
2021/01/28 06:51:27;;;;;;;5.73;3.70;;;;;;;0.20;89.53;94595.63;4970507;28;20192;-72
2021/01/28 06:53:58;;;;;;;3.90;3.37;;;;;;;0.13;89.68;94594.44;4963229;28;20556;-74
2021/01/28 06:56:48;;;;;;;3.97;3.17;;;;;;;0.21;90.11;94594.69;4949847;28;20286;-73
2021/01/28 06:59:52;;;;;;;4.83;3.50;;;;;;;0.18;89.94;94593.19;4989816;28;20189;-74
2021/01/28 07:02:30;;;;;;;4.23;2.87;;;;;;;0.27;89.97;94587.44;4982033;28;20271;-74
2021/01/28 07:05:21;;;;;;;4.83;3.10;;;;;;;0.35;89.90;94574.09;4957403;28;20251;-74
2021/01/28 07:07:56;;;;;;;4.57;3.07;;;;;;;0.43;90.04;94576.09;4995116;28;20203;-73
2021/01/28 07:10:33;;;;;;;4.13;3.10;;;;;;;0.43;89.92;94578.66;4986175;28;20663;-73
2021/01/28 07:12:59;;;;;;;4.70;3.30;;;;;;;0.34;89.67;94569.09;4976891;28;20246;-74
2021/01/28 07:15:26;;;;;;;3.63;2.70;;;;;;;0.37;90.04;94567.16;4964787;28;20192;-74
2021/01/28 07:17:56;;;;;;;3.97;3.07;;;;;;;0.43;90.06;94566.69;4966846;28;20192;-73
2021/01/28 07:20:29;;;;;;;4.30;2.67;;;;;;;0.52;90.09;94570.31;4968740;28;20185;-74
2021/01/28 07:23:13;;;;;;;3.57;2.80;;;;;;;0.49;90.18;94560.34;4959168;28;20204;-73
2021/01/28 07:25:39;;;;;;;4.80;2.43;;;;;;;0.46;90.05;94558.03;4965832;28;20239;-74
2021/01/28 07:28:05;;;;;;;4.47;2.70;;;;;;;0.48;90.12;94551.06;4974176;28;20743;-74
2021/01/28 07:30:40;;;;;;;5.23;3.20;;;;;;;0.46;90.43;94553.72;4975778;28;20209;-73
2021/01/28 07:33:27;;;;;;;3.90;2.93;;;;;;;0.56;90.60;94551.31;4972351;28;20180;-73
2021/01/28 07:35:54;;;;;;;5.30;3.10;;;;;;;0.62;90.36;94545.75;4983263;28;20262;-73
2021/01/28 07:38:29;;;;;;;5.13;3.20;;;;;;;0.70;90.67;94542.63;4994257;28;20180;-73
2021/01/28 07:41:07;;;;;;;3.57;2.57;;;;;;;0.67;90.47;94528.34;4978236;28;20180;-74
2021/01/28 07:43:38;;;;;;;3.70;2.30;;;;;;;0.72;90.68;94525.47;4976653;28;20292;-74
2021/01/28 07:46:28;;;;;;;2.50;2.30;;;;;;;0.74;90.46;94516.75;4958850;28;20203;-74
2021/01/28 07:49:09;;;;;;;3.20;2.43;;;;;;;0.76;90.60;94512.34;4975535;28;20237;-73
2021/01/28 07:51:52;;;;;;;2.97;2.50;;;;;;;0.84;90.62;94506.66;4951511;28;20200;-73
2021/01/28 07:54:23;;;;;;;3.47;2.10;;;;;;;0.85;90.89;94495.50;4988774;28;20184;-73
2021/01/28 07:56:57;;;;;;;3.20;1.80;;;;;;;0.95;91.05;94493.06;4974039;28;20199;-73
2021/01/28 07:59:22;;;;;;;3.07;1.90;;;;;;;1.18;91.01;94479.38;4960894;28;20602;-73
2021/01/28 08:01:50;;;;;;;1.90;1.50;;;;;;;1.19;90.91;94488.66;4978786;28;20181;-74
2021/01/28 08:04:41;;;;;;;2.53;2.00;;;;;;;1.28;90.58;94482.84;4973091;28;20250;-74
2021/01/28 08:07:08;;;;;;;2.53;1.63;;;;;;;1.27;90.50;94471.00;4973431;28;20220;-75
2021/01/28 08:10:04;;;;;;;2.10;1.90;;;;;;;1.32;90.41;94468.06;4961847;28;20188;-74
2021/01/28 08:12:46;;;;;;;2.83;2.27;;;;;;;1.35;90.21;94463.53;4977614;28;20258;-74
2021/01/28 08:15:17;;;;;;;2.10;1.53;;;;;;;1.37;89.85;94453.19;4964234;28;20226;-73
2021/01/28 08:17:43;;;;;;;2.40;2.10;;;;;;;1.37;89.91;94461.66;4983524;28;20643;-73
2021/01/28 08:20:26;;;;;;;3.00;2.00;;;;;;;1.31;89.82;94446.78;4964859;28;21487;-73
2021/01/28 08:22:57;;;;;;;3.60;2.50;;;;;;;1.26;90.00;94445.53;4973467;28;20196;-73
2021/01/28 08:25:25;;;;;;;2.90;2.23;;;;;;;1.17;89.89;94434.28;4959175;28;20185;-72
2021/01/28 08:27:51;;;;;;;2.40;1.90;;;;;;;1.21;90.22;94440.75;4972165;28;20173;-72
2021/01/28 08:30:27;;;;;;;2.73;2.03;;;;;;;1.31;89.92;94428.06;4974608;28;20184;-72
2021/01/28 08:32:56;;;;;;;3.30;2.60;;;;;;;1.23;89.88;94418.44;4983237;28;20640;-72
2021/01/28 08:35:43;;;;;;;3.50;2.70;;;;;;;1.30;89.63;94418.78;4975685;28;20184;-73
2021/01/28 08:38:17;;;;;;;4.30;3.00;;;;;;;1.27;89.57;94409.59;4965074;28;20274;-72
2021/01/28 08:40:47;;;;;;;3.13;2.83;;;;;;;1.27;89.36;94399.38;4949989;28;20184;-73
2021/01/28 08:43:15;;;;;;;4.47;2.80;;;;;;;1.22;89.46;94395.53;4971832;28;20208;-72
2021/01/28 08:45:41;;;;;;;4.73;2.90;;;;;;;1.23;90.16;94385.19;4959572;28;20312;-72
2021/01/28 08:48:10;;;;;;;3.60;2.70;;;;;;;1.21;89.53;94376.03;4973612;28;20199;-72
2021/01/28 08:50:36;;;;;;;3.70;2.90;;;;;;;1.22;89.80;94378.44;4971470;28;20544;-72
2021/01/28 08:53:17;;;;;;;4.03;2.87;;;;;;;1.27;89.56;94378.91;4947052;28;20179;-72
2021/01/28 08:55:44;;;;;;;3.70;2.73;;;;;;;1.31;89.87;94369.25;4964189;28;20203;-72
2021/01/28 08:58:31;;;;;;;4.43;3.00;;;;;;;1.23;89.51;94362.16;4966682;28;20177;-72
2021/01/28 09:01:01;;;;;;;4.77;3.00;;;;;;;1.30;89.32;94360.75;4979548;28;20180;-72
2021/01/28 09:03:40;;;;;;;4.73;3.30;;;;;;;1.31;89.26;94341.91;4964720;28;20368;-72
2021/01/28 09:06:05;;;;;;;3.70;2.53;;;;;;;1.35;89.57;94345.88;4959184;28;20266;-72
2021/01/28 09:08:39;;;;;;;2.93;2.63;;;;;;;1.35;89.50;94345.88;4960059;28;20181;-72
2021/01/28 09:11:37;;;;;;;2.87;2.37;;;;;;;1.35;89.39;94343.31;4941703;28;20212;-72
2021/01/28 09:14:16;;;;;;;4.53;2.80;;;;;;;1.38;89.78;94340.50;4925116;29;20609;-72
2021/01/28 09:17:16;;;;;;;3.70;2.67;;;;;;;1.52;89.37;94336.88;4935710;29;20217;-73
2021/01/28 09:19:52;;;;;;;3.13;2.47;;;;;;;1.66;89.37;94333.19;4901953;29;20218;-72
2021/01/28 09:22:36;;;;;;;5.23;3.27;;;;;;;1.74;88.70;94325.72;4899215;29;20242;-73
2021/01/28 09:25:13;;;;;;;3.03;2.57;;;;;;;1.64;88.52;94315.41;4897428;29;20195;-74
2021/01/28 09:27:38;;;;;;;3.67;2.37;;;;;;;1.67;89.33;94325.38;4897708;29;20614;-73
2021/01/28 09:30:25;;;;;;;4.47;3.07;;;;;;;1.64;89.11;94323.06;4911760;29;20287;-73
2021/01/28 09:32:50;;;;;;;3.10;2.80;;;;;;;1.72;89.40;94312.22;4884239;29;20183;-74
2021/01/28 09:35:24;;;;;;;5.23;3.90;;;;;;;1.67;89.28;94309.22;4896876;29;20209;-73
2021/01/28 09:38:13;;;;;;;4.17;3.03;;;;;;;1.80;90.07;94312.41;4890386;29;20183;-73
2021/01/28 09:40:44;;;;;;;2.13;1.80;;;;;;;1.90;89.90;94318.41;4898377;29;20199;-73
2021/01/28 09:43:26;;;;;;;1.43;1.07;;;;;;;2.14;90.69;94313.03;4894064;29;20225;-70
2021/01/28 09:46:18;;;;;;;1.10;0.90;;;;;;;2.43;90.61;94323.41;4891674;29;20209;-73
2021/01/28 09:48:44;;;;;;;2.60;0.70;;;;;;;2.71;90.88;94318.53;4909973;29;20689;-71
2021/01/28 09:51:11;;;;;;;0.50;0.50;;;;;;;2.90;90.76;94321.16;4924778;29;20650;-71
2021/01/28 09:53:37;;;;;;;0.83;0.80;;;;;;;2.93;91.17;94313.22;4928972;29;20657;-71
2021/01/28 09:56:03;;;;;;;1.87;0.97;;;;;;;3.13;90.76;94321.75;4953600;28;20304;-73
2021/01/28 09:58:29;;;;;;;1.30;0.80;;;;;;;3.23;90.73;94317.44;4956945;28;20556;-71
2021/01/28 10:00:54;;;;;;;2.83;1.43;;;;;;;3.25;90.67;94315.53;4980477;28;20193;-71
2021/01/28 10:03:21;;;;;;;5.53;2.40;;;;;;;3.25;90.53;94315.53;4983021;28;20208;-73
2021/01/28 10:05:46;;;;;;;5.43;2.80;;;;;;;3.30;90.76;94312.59;4972978;28;20214;-70
2021/01/28 10:08:15;;;;;;;10.60;6.90;;;;;;;3.44;90.63;94326.75;4956198;28;20247;-71
2021/01/28 10:10:40;;;;;;;8.70;5.63;;;;;;;3.50;90.41;94315.97;4968901;28;20270;-74
2021/01/28 10:13:16;;;;;;;3.50;2.30;;;;;;;3.57;90.35;94320.44;4965093;28;20255;-74
2021/01/28 10:15:42;;;;;;;5.53;3.10;;;;;;;3.52;90.06;94317.44;4968601;28;20665;-73
2021/01/28 10:18:07;;;;;;;14.50;8.47;;;;;;;3.51;90.54;94322.72;4956972;28;20556;-73
2021/01/28 10:20:33;;;;;;;2.47;1.63;;;;;;;3.90;90.25;94323.53;4959879;28;20192;-72
2021/01/28 10:23:02;;;;;;;2.37;1.20;;;;;;;3.93;90.02;94328.38;4975676;28;20197;-73
2021/01/28 10:25:28;;;;;;;1.63;1.00;;;;;;;4.00;90.16;94315.81;4962910;28;20242;-73
2021/01/28 10:27:53;;;;;;;3.77;2.40;;;;;;;3.99;90.06;94325.28;4970245;28;20220;-72
2021/01/28 10:30:19;;;;;;;3.27;1.50;;;;;;;3.92;89.67;94303.66;4963404;28;20267;-73
2021/01/28 10:32:46;;;;;;;2.23;1.77;;;;;;;3.97;90.29;94312.56;4950976;28;20193;-72
2021/01/28 10:35:13;;;;;;;1.67;1.20;;;;;;;4.19;89.89;94308.06;4947949;28;20246;-73
2021/01/28 10:37:38;;;;;;;0.63;0.50;;;;;;;4.50;89.35;94309.44;4964165;28;20177;-73
2021/01/28 10:40:05;;;;;;;0.90;0.90;;;;;;;4.65;89.04;94307.22;4971096;28;20246;-73
2021/01/28 10:42:38;;;;;;;2.20;1.40;;;;;;;4.72;88.50;94298.00;4972212;28;20215;-72
2021/01/28 10:45:24;;;;;;;2.13;1.40;;;;;;;4.93;88.11;94297.75;4955848;28;20203;-73
2021/01/28 10:47:51;;;;;;;1.23;0.80;;;;;;;5.06;87.86;94300.00;4986647;28;20196;-73
2021/01/28 10:50:16;;;;;;;1.77;1.10;;;;;;;5.14;87.07;94292.38;4972362;28;20596;-73
2021/01/28 10:52:42;;;;;;;4.27;1.80;;;;;;;5.02;87.04;94299.47;4972685;28;20168;-71
2021/01/28 10:55:08;;;;;;;0.70;0.60;;;;;;;4.92;87.91;94287.59;4976762;28;20210;-73
2021/01/28 10:57:34;;;;;;;2.50;0.80;;;;;;;4.94;88.72;94272.84;4953267;28;20188;-73
2021/01/28 10:59:59;;;;;;;0.57;0.57;;;;;;;5.09;87.97;94279.13;4972889;28;20266;-73
2021/01/28 11:02:25;;;;;;;1.00;0.47;;;;;;;5.05;87.81;94273.47;4973280;28;20275;-73
2021/01/28 11:04:50;;;;;;;0.83;0.80;;;;;;;5.12;87.68;94263.38;4979953;28;20176;-73
2021/01/28 11:07:15;;;;;;;2.20;1.40;;;;;;;5.11;87.70;94241.16;4974183;28;20207;-72
2021/01/28 11:09:41;;;;;;;2.83;2.10;;;;;;;5.09;88.06;94230.22;4989598;28;20199;-72
2021/01/28 11:12:07;;;;;;;2.27;1.50;;;;;;;5.01;87.44;94215.50;4972455;28;20291;-73
2021/01/28 11:14:32;;;;;;;0.53;0.53;;;;;;;5.14;88.10;94215.16;4988074;28;20172;-73
2021/01/28 11:16:58;;;;;;;1.07;0.70;;;;;;;5.35;86.85;94210.50;4955695;28;20283;-73
2021/01/28 11:19:23;;;;;;;0.73;0.50;;;;;;;5.65;86.85;94203.31;4955212;28;20547;-73
2021/01/28 11:21:48;;;;;;;0.90;0.70;;;;;;;5.97;85.69;94213.88;4988756;28;20195;-73
2021/01/28 11:24:14;;;;;;;1.67;1.20;;;;;;;6.21;85.47;94215.00;4987894;28;20207;-72
2021/01/28 11:26:39;;;;;;;2.20;1.20;;;;;;;6.40;84.64;94217.34;4972169;28;20298;-72
2021/01/28 11:29:06;;;;;;;2.33;1.20;;;;;;;6.49;84.94;94211.25;4972402;28;20183;-73
2021/01/28 11:31:31;;;;;;;0.57;0.57;;;;;;;6.61;84.06;94216.94;4988377;28;20176;-73
2021/01/28 11:33:57;;;;;;;0.80;0.80;;;;;;;6.67;84.00;94200.84;4954937;28;20666;-73
2021/01/28 11:36:23;;;;;;;0.67;0.50;;;;;;;6.69;84.60;94198.09;4986626;28;20573;-73
2021/01/28 11:38:48;;;;;;;0.50;0.40;;;;;;;6.52;84.86;94204.97;4971340;28;20187;-72
2021/01/28 11:41:13;;;;;;;0.60;0.40;;;;;;;6.44;85.36;94204.94;4991959;28;21944;-74
2021/01/28 11:43:38;;;;;;;0.57;0.57;;;;;;;6.28;85.17;94195.38;4973275;28;20231;-72
2021/01/28 11:46:04;;;;;;;0.90;0.60;;;;;;;6.28;86.02;94194.56;4967190;28;20196;-74
2021/01/28 11:48:29;;;;;;;0.90;0.70;;;;;;;6.40;85.61;94190.75;4973776;28;20191;-74
2021/01/28 11:50:54;;;;;;;0.70;0.70;;;;;;;6.60;85.24;94194.69;4963888;28;20192;-74
2021/01/28 11:53:20;;;;;;;0.40;0.40;;;;;;;6.80;84.45;94185.72;4973611;28;20197;-74
2021/01/28 11:55:45;;;;;;;0.50;0.50;;;;;;;6.87;83.62;94174.75;4962231;28;20196;-73
2021/01/28 11:58:12;;;;;;;0.60;0.60;;;;;;;6.97;83.66;94181.38;4968345;28;20239;-73